Time;durP1;ratioP1;P1;durP2;ratioP2;P2;SDS_P1;SDS_P2;PMS_P1;PMS_P2;Temp;Humidity;BMP_temperature;BMP_pressure;BME280_temperature;BME280_humidity;BME280_pressure;Samples;Min_cycle;Max_cycle;Signal;HPM_P1;HPM_P2
2023/01/28 00:01:21;;;;;;;6.53;4.97;;;0.40;99.90;;;;;;5025743;28;20205;-84
2023/01/28 00:03:50;;;;;;;5.70;4.43;;;0.60;99.90;;;;;;5025431;28;20201;-84
2023/01/28 00:06:19;;;;;;;6.55;3.88;;;0.40;99.90;;;;;;5024581;28;20208;-82
2023/01/28 00:08:46;;;;;;;7.00;4.10;;;0.40;99.90;;;;;;5023618;28;20237;-83
2023/01/28 00:11:14;;;;;;;6.50;4.93;;;0.30;99.90;;;;;;5023028;28;20273;-84
2023/01/28 00:13:41;;;;;;;6.55;4.70;;;0.30;99.90;;;;;;5022613;28;20231;-84
2023/01/28 00:16:09;;;;;;;8.60;5.03;;;;;;;;;;5022840;28;20208;-85
2023/01/28 00:18:36;;;;;;;7.32;4.72;;;0.30;99.90;;;;;;5031864;28;20233;-83
2023/01/28 00:21:05;;;;;;;10.10;4.97;;;0.30;99.90;;;;;;5040048;28;20255;-85
2023/01/28 00:23:35;;;;;;;5.35;4.50;;;0.60;1.00;;;;;;5033878;28;20303;-83
2023/01/28 00:26:04;;;;;;;14.00;4.60;;;0.80;99.90;;;;;;5022207;28;20295;-83
2023/01/28 00:28:30;;;;;;;7.25;4.20;;;0.40;1.00;;;;;;5022800;28;20231;-83
2023/01/28 00:30:57;;;;;;;7.93;4.50;;;0.00;1.00;;;;;;5023387;28;20208;-83
2023/01/28 00:33:24;;;;;;;8.43;4.07;;;0.30;99.90;;;;;;5027246;28;20267;-84
2023/01/28 00:36:00;;;;;;;9.30;4.35;;;0.30;99.90;;;;;;5025514;28;20239;-83
2023/01/28 00:38:27;;;;;;;9.30;4.15;;;0.30;99.90;;;;;;5023271;28;20270;-83
2023/01/28 00:40:55;;;;;;;7.85;4.70;;;0.20;99.90;;;;;;5021728;28;20582;-83
2023/01/28 00:43:22;;;;;;;7.20;4.97;;;0.20;99.90;;;;;;5021576;28;20591;-84
2023/01/28 00:45:51;;;;;;;9.40;5.30;;;0.10;99.90;;;;;;5021932;28;20240;-82
2023/01/28 00:48:18;;;;;;;5.40;4.63;;;0.50;99.90;;;;;;5021458;28;20225;-83
2023/01/28 00:50:45;;;;;;;7.80;4.15;;;0.10;99.90;;;;;;5022553;28;20259;-84
2023/01/28 00:53:12;;;;;;;8.18;4.95;;;0.10;99.90;;;;;;5021685;28;20235;-83
2023/01/28 00:55:39;;;;;;;12.15;5.57;;;0.00;99.90;;;;;;5022187;28;20287;-84
2023/01/28 00:58:07;;;;;;;6.85;4.80;;;0.10;99.90;;;;;;5028247;28;20694;-83
2023/01/28 01:00:34;;;;;;;6.13;4.60;;;0.80;99.90;;;;;;5031061;28;20205;-83
2023/01/28 01:03:00;;;;;;;12.23;5.30;;;0.10;99.90;;;;;;5022976;28;20197;-84
2023/01/28 01:05:28;;;;;;;8.25;5.90;;;;;;;;;;5022049;28;20293;-84
2023/01/28 01:07:57;;;;;;;5.88;5.25;;;0.10;1.00;;;;;;5018496;28;20225;-83
2023/01/28 01:10:24;;;;;;;10.55;4.78;;;0.00;99.90;;;;;;5018773;28;20204;-83
2023/01/28 01:12:51;;;;;;;9.35;5.45;;;-0.10;99.90;;;;;;5019184;28;20580;-82
2023/01/28 01:15:20;;;;;;;7.90;5.60;;;-0.20;1.00;;;;;;5020072;28;20287;-83
2023/01/28 01:17:49;;;;;;;7.57;4.72;;;-0.40;99.90;;;;;;5021354;28;20316;-83
2023/01/28 01:20:16;;;;;;;12.43;4.90;;;0.60;1.00;;;;;;5028864;28;20240;-84
2023/01/28 01:22:46;;;;;;;7.70;5.28;;;-0.20;1.00;;;;;;5034071;28;20212;-81
2023/01/28 01:25:14;;;;;;;7.80;5.15;;;-0.10;1.00;;;;;;5036838;28;20196;-82
2023/01/28 01:27:41;;;;;;;6.50;4.13;;;-0.30;99.90;;;;;;5035244;28;20225;-80
2023/01/28 01:30:10;;;;;;;6.78;4.00;;;0.00;1.00;;;;;;5036216;28;20244;-83
2023/01/28 01:32:38;;;;;;;7.60;3.90;;;0.00;1.00;;;;;;5029420;28;20247;-83
2023/01/28 01:35:06;;;;;;;9.13;4.10;;;-0.10;1.00;;;;;;5020755;28;20247;-83
2023/01/28 01:37:33;;;;;;;6.57;4.75;;;0.70;1.00;;;;;;5021439;28;20244;-83
2023/01/28 01:40:00;;;;;;;6.28;5.07;;;0.00;1.00;;;;;;5021981;28;20211;-84
2023/01/28 01:42:28;;;;;;;5.13;4.15;;;0.00;99.90;;;;;;5021520;28;20205;-83
2023/01/28 01:45:01;;;;;;;9.77;4.68;;;0.10;99.90;;;;;;5020933;28;20633;-83
2023/01/28 01:47:36;;;;;;;6.20;4.43;;;0.20;1.00;;;;;;5020465;28;20201;-83
2023/01/28 01:50:11;;;;;;;7.53;3.97;;;-0.10;1.00;;;;;;5021021;28;20298;-83
2023/01/28 01:52:40;;;;;;;10.13;5.65;;;0.10;99.90;;;;;;5021589;28;20307;-83
2023/01/28 01:55:12;;;;;;;5.65;4.75;;;0.10;1.00;;;;;;5024210;28;20370;-86
2023/01/28 01:57:39;;;;;;;11.18;5.10;;;0.20;99.90;;;;;;5027426;28;20232;-83
2023/01/28 02:00:08;;;;;;;8.90;4.40;;;0.20;1.00;;;;;;5021529;28;20227;-82
2023/01/28 02:02:39;;;;;;;4.90;4.00;;;0.50;99.90;;;;;;5021601;28;20262;-82
2023/01/28 02:05:08;;;;;;;4.40;3.97;;;0.20;99.90;;;;;;5021139;28;20189;-82
2023/01/28 02:07:36;;;;;;;8.63;3.88;;;0.70;1.00;;;;;;5022507;28;20268;-81
2023/01/28 02:10:05;;;;;;;5.78;4.38;;;0.70;99.90;;;;;;5022173;28;20275;-84
2023/01/28 02:12:35;;;;;;;9.98;4.50;;;0.50;99.90;;;;;;5019580;28;20209;-82
2023/01/28 02:15:05;;;;;;;8.60;4.40;;;1.10;99.90;;;;;;5019061;28;20184;-84
2023/01/28 02:17:32;;;;;;;7.68;5.13;;;0.20;99.90;;;;;;5018741;28;20670;-84
2023/01/28 02:20:01;;;;;;;4.70;3.33;;;0.40;99.90;;;;;;5020008;28;20212;-83
2023/01/28 02:22:50;;;;;;;4.70;4.30;;;0.60;99.90;;;;;;5019243;28;20212;-83
2023/01/28 02:25:43;;;;;;;8.00;4.45;;;0.80;99.90;;;;;;5020441;28;20188;-83
2023/01/28 02:28:23;;;;;;;5.70;4.10;;;0.70;89.20;;;;;;5028558;28;20240;-83
2023/01/28 02:30:58;;;;;;;5.63;3.35;;;0.50;99.90;;;;;;5036566;28;20177;-82
2023/01/28 02:33:31;;;;;;;5.70;4.00;;;0.90;99.90;;;;;;5036090;28;20195;-83
2023/01/28 02:36:06;;;;;;;6.03;4.07;;;0.50;99.90;;;;;;5035797;28;20193;-83
2023/01/28 02:38:37;;;;;;;8.45;4.22;;;0.80;99.90;;;;;;5035051;28;20252;-84
2023/01/28 02:41:08;;;;;;;4.18;3.42;;;0.60;99.90;;;;;;5029671;28;20189;-83
2023/01/28 02:43:38;;;;;;;7.00;4.20;;;0.90;92.50;;;;;;5020596;28;20204;-83
2023/01/28 02:49:00;;;;;;;11.25;3.30;;;0.90;38.70;;;;;;5017723;28;20236;-83
2023/01/28 02:51:37;;;;;;;5.25;3.47;;;0.90;1.00;;;;;;5024049;28;20231;-83
2023/01/28 02:54:18;;;;;;;4.60;3.72;;;0.90;1.00;;;;;;5024649;28;20188;-83
2023/01/28 02:56:56;;;;;;;5.65;3.63;;;0.80;99.90;;;;;;5019679;28;20193;-82
2023/01/28 02:59:35;;;;;;;5.63;3.90;;;0.70;1.00;;;;;;5020480;28;20246;-81
2023/01/28 03:02:10;;;;;;;6.47;3.92;;;0.80;1.00;;;;;;5036326;28;20184;-80
2023/01/28 03:04:42;;;;;;;7.80;3.97;;;0.80;21.50;;;;;;5029805;28;20278;-84
2023/01/28 03:07:13;;;;;;;6.65;4.15;;;0.90;14.40;;;;;;5027937;28;20275;-85
2023/01/28 03:09:44;;;;;;;10.10;5.93;;;0.80;1.00;;;;;;5024152;28;20654;-83
2023/01/28 03:37:28;;;;;;;3.80;3.45;;;0.80;1.00;;;;;;5022723;28;20191;-82
2023/01/28 03:39:56;;;;;;;8.63;4.68;;;0.80;1.00;;;;;;5023179;28;20207;-83
2023/01/28 03:42:24;;;;;;;4.15;3.17;;;0.80;1.00;;;;;;5023928;28;20209;-80
2023/01/28 03:44:50;;;;;;;4.25;3.03;;;0.90;1.00;;;;;;5024788;28;20260;-83
2023/01/28 03:47:19;;;;;;;4.03;3.25;;;1.00;1.00;;;;;;5022932;28;20205;-82
2023/01/28 03:49:49;;;;;;;4.07;3.38;;;1.00;1.00;;;;;;5022719;28;20220;-84
2023/01/28 03:52:17;;;;;;;7.07;3.70;;;0.90;1.00;;;;;;5034202;28;20205;-83
2023/01/28 03:54:46;;;;;;;5.07;3.35;;;0.80;1.00;;;;;;5026609;28;20231;-82
2023/01/28 03:57:13;;;;;;;3.70;3.40;;;0.80;1.00;;;;;;5031527;28;20220;-84
2023/01/28 03:59:41;;;;;;;7.03;2.95;;;0.90;1.00;;;;;;5027004;28;20225;-83
2023/01/28 04:02:09;;;;;;;3.15;2.85;;;1.00;1.00;;;;;;5023338;28;20262;-83
2023/01/28 04:04:38;;;;;;;6.18;2.90;;;0.90;99.90;;;;;;5021771;28;20207;-84
2023/01/28 04:07:07;;;;;;;3.45;3.15;;;1.00;99.90;;;;;;5022467;28;20207;-83
2023/01/28 04:09:34;;;;;;;5.47;3.25;;;1.00;99.90;;;;;;5022499;28;20252;-82
2023/01/28 04:12:01;;;;;;;4.45;3.00;;;1.00;99.90;;;;;;5038077;28;20270;-83
2023/01/28 04:14:28;;;;;;;9.63;3.35;;;1.00;99.90;;;;;;5040843;28;20248;-83
2023/01/28 04:16:54;;;;;;;3.00;2.70;;;0.90;99.90;;;;;;5024978;28;20639;-84
2023/01/28 04:19:22;;;;;;;4.50;2.72;;;0.90;99.90;;;;;;5033335;22;20232;-82
2023/01/28 04:21:52;;;;;;;5.50;2.60;;;0.90;1.00;;;;;;5019442;28;20211;-81
2023/01/28 04:24:20;;;;;;;2.50;2.30;;;1.00;1.00;;;;;;5019348;28;20618;-81
2023/01/28 04:26:47;;;;;;;5.15;3.75;;;1.10;1.00;;;;;;5019476;28;20205;-82
2023/01/28 04:29:14;;;;;;;3.05;2.85;;;0.90;99.90;;;;;;5019453;28;20235;-81
2023/01/28 04:31:41;;;;;;;3.78;2.50;;;0.90;99.90;;;;;;5019608;28;20205;-81
2023/01/28 04:34:08;;;;;;;2.97;2.60;;;1.20;99.90;;;;;;5020303;28;20207;-80
2023/01/28 04:36:34;;;;;;;2.70;2.60;;;1.00;1.00;;;;;;5028042;28;20236;-81
2023/01/28 04:39:03;;;;;;;3.40;2.83;;;0.80;1.00;;;;;;5025725;28;20225;-81
2023/01/28 04:41:30;;;;;;;3.25;2.25;;;0.90;99.90;;;;;;5020613;28;20241;-82
2023/01/28 04:43:57;;;;;;;2.88;2.67;;;1.00;99.90;;;;;;5020684;28;20712;-81
2023/01/28 04:46:25;;;;;;;2.65;2.33;;;1.20;1.00;;;;;;5020016;28;20272;-81
2023/01/28 04:48:52;;;;;;;2.40;2.20;;;1.10;99.90;;;;;;5019203;28;20235;-81
2023/01/28 04:51:18;;;;;;;4.28;2.92;;;1.10;99.90;;;;;;5019337;28;20204;-81
2023/01/28 04:53:45;;;;;;;2.58;2.47;;;1.30;1.00;;;;;;5019443;28;20214;-80
2023/01/28 04:56:13;;;;;;;4.40;2.47;;;1.00;99.90;;;;;;5028991;28;20211;-81
2023/01/28 04:58:40;;;;;;;4.40;2.35;;;1.10;99.90;;;;;;5023749;28;20240;-81
2023/01/28 05:01:07;;;;;;;2.90;2.70;;;1.10;1.00;;;;;;5019916;28;20204;-80
2023/01/28 05:03:34;;;;;;;3.80;3.50;;;0.90;1.00;;;;;;5020001;28;20216;-80
2023/01/28 05:06:01;;;;;;;3.47;2.88;;;1.10;99.90;;;;;;5019502;28;20266;-80
2023/01/28 05:08:28;;;;;;;4.85;3.28;;;1.10;99.90;;;;;;5019564;28;20657;-81
2023/01/28 05:10:55;;;;;;;2.90;2.70;;;1.20;1.00;;;;;;5018852;28;20225;-80
2023/01/28 05:13:24;;;;;;;8.65;3.42;;;1.20;1.00;;;;;;5019129;28;20205;-81
2023/01/28 05:15:52;;;;;;;3.60;3.30;;;1.10;99.90;;;;;;5019149;28;20571;-80
2023/01/28 05:18:19;;;;;;;3.00;2.70;;;1.20;1.00;;;;;;5023050;28;20232;-80
2023/01/28 05:20:47;;;;;;;2.47;2.22;;;1.30;1.00;;;;;;5019257;28;20280;-80
2023/01/28 05:23:14;;;;;;;6.03;3.20;;;1.30;1.00;;;;;;5019449;28;20208;-80
2023/01/28 05:25:40;;;;;;;6.63;3.67;;;1.10;99.90;;;;;;5027220;28;20298;-80
2023/01/28 05:28:07;;;;;;;4.75;3.08;;;1.20;1.00;;;;;;5026934;28;20255;-81
2023/01/28 05:30:37;;;;;;;3.20;2.90;;;1.30;99.90;;;;;;5027836;28;20233;-81
2023/01/28 05:33:04;;;;;;;3.28;2.67;;;1.40;99.90;;;;;;5023097;28;20324;-81
2023/01/28 05:35:31;;;;;;;4.30;3.08;;;1.30;99.90;;;;;;5019292;28;20205;-80
2023/01/28 05:37:57;;;;;;;3.35;3.05;;;1.50;1.00;;;;;;5018815;28;20258;-80
2023/01/28 05:40:24;;;;;;;3.47;3.15;;;1.40;99.90;;;;;;5018800;28;20295;-80
2023/01/28 05:42:51;;;;;;;4.45;3.00;;;1.40;99.90;;;;;;5019601;28;20204;-81
2023/01/28 05:45:18;;;;;;;4.03;3.70;;;1.30;99.90;;;;;;5025561;28;20204;-80
2023/01/28 05:47:46;;;;;;;5.55;3.25;;;1.20;99.90;;;;;;5024608;28;20295;-81
2023/01/28 05:50:14;;;;;;;7.35;3.33;;;1.30;99.90;;;;;;5022330;28;20311;-81
2023/01/28 05:52:41;;;;;;;3.25;2.65;;;1.30;99.90;;;;;;5027812;28;20205;-80
2023/01/28 05:55:09;;;;;;;4.47;3.70;;;1.40;99.90;;;;;;5028971;28;20204;-81
2023/01/28 05:57:36;;;;;;;5.25;4.75;;;1.30;99.90;;;;;;5028282;28;20268;-81
2023/01/28 06:00:04;;;;;;;5.22;3.25;;;1.40;1.00;;;;;;5024364;28;20224;-82
2023/01/28 06:02:31;;;;;;;5.10;4.07;;;1.40;99.90;;;;;;5027215;28;20212;-80
2023/01/28 06:04:59;;;;;;;6.32;3.80;;;1.40;99.90;;;;;;5022583;28;20208;-80
2023/01/28 06:07:26;;;;;;;8.18;4.45;;;1.40;99.90;;;;;;5023476;28;20200;-80
2023/01/28 06:09:52;;;;;;;9.07;5.20;;;1.30;99.90;;;;;;5019824;28;20224;-81
2023/01/28 06:12:19;;;;;;;10.50;5.70;;;1.30;99.90;;;;;;5019753;28;20204;-80
2023/01/28 06:14:46;;;;;;;12.88;7.10;;;1.30;99.90;;;;;;5019830;28;20201;-80
2023/01/28 06:17:13;;;;;;;7.72;5.53;;;1.40;99.90;;;;;;5020709;28;20368;-81
2023/01/28 06:19:40;;;;;;;10.77;6.75;;;1.30;99.90;;;;;;5019219;28;20233;-81
2023/01/28 06:22:08;;;;;;;12.30;6.95;;;1.40;99.90;;;;;;5021878;28;20268;-81
2023/01/28 06:24:35;;;;;;;9.60;6.68;;;1.40;99.90;;;;;;5030468;28;20275;-81
2023/01/28 06:27:02;;;;;;;11.38;7.00;;;1.40;99.90;;;;;;5018291;28;20291;-81
2023/01/28 06:29:28;;;;;;;12.85;7.28;;;1.30;99.90;;;;;;5017949;28;20234;-80
2023/01/28 06:31:55;;;;;;;9.68;7.50;;;1.40;99.90;;;;;;5021429;28;20638;-82
2023/01/28 06:34:22;;;;;;;13.93;7.55;;;1.50;99.90;;;;;;5017423;28;20205;-81
2023/01/28 06:36:49;;;;;;;8.07;6.78;;;1.60;99.90;;;;;;5019216;28;20200;-81
2023/01/28 06:39:20;;;;;;;9.45;7.72;;;1.60;99.90;;;;;;5017991;28;20220;-81
2023/01/28 06:41:46;;;;;;;11.73;7.70;;;1.60;99.90;;;;;;5018603;28;20189;-81
2023/01/28 06:44:13;;;;;;;10.73;7.30;;;1.50;99.90;;;;;;5018157;28;20227;-81
2023/01/28 06:46:40;;;;;;;11.02;7.45;;;1.30;99.90;;;;;;5018312;28;20215;-81
2023/01/28 06:49:07;;;;;;;17.40;7.70;;;1.40;99.90;;;;;;5018138;28;20247;-81
2023/01/28 06:51:34;;;;;;;10.00;7.50;;;1.40;99.90;;;;;;5018932;28;20220;-81
2023/01/28 06:58:15;;;;;;;11.20;7.30;;;1.50;99.90;;;;;;5019142;28;20214;-81
2023/01/28 07:07:28;;;;;;;9.77;6.90;;;1.40;99.90;;;;;;5018180;28;20164;-82
2023/01/28 07:09:55;;;;;;;10.75;7.05;;;1.60;99.90;;;;;;5017411;28;20304;-81
2023/01/28 07:12:22;;;;;;;11.68;8.10;;;1.60;1.00;;;;;;5018398;28;20204;-81
2023/01/28 07:14:48;;;;;;;7.95;6.95;;;1.60;99.90;;;;;;5017424;28;20232;-82
2023/01/28 07:17:15;;;;;;;13.82;8.50;;;1.60;99.90;;;;;;5018044;28;20208;-81
2023/01/28 07:19:42;;;;;;;11.50;7.40;;;1.60;99.90;;;;;;5025180;28;20322;-81
2023/01/28 07:22:09;;;;;;;12.60;8.20;;;1.70;99.90;;;;;;5025055;28;20201;-81
2023/01/28 07:24:37;;;;;;;13.13;7.60;;;1.60;99.90;;;;;;5017290;28;20211;-82
2023/01/28 07:27:04;;;;;;;13.05;7.65;;;1.50;97.50;;;;;;5017946;28;20292;-80
2023/01/28 07:29:31;;;;;;;13.13;7.55;;;1.40;99.90;;;;;;5017835;28;20243;-81
2023/01/28 07:31:58;;;;;;;10.60;7.72;;;1.60;99.90;;;;;;5018707;28;20231;-81
2023/01/28 07:34:25;;;;;;;12.38;9.38;;;1.60;99.90;;;;;;5017712;28;20292;-81
2023/01/28 07:36:52;;;;;;;12.98;7.60;;;1.40;78.10;;;;;;5024929;28;20296;-81
2023/01/28 07:39:18;;;;;;;10.70;6.50;;;1.50;99.90;;;;;;5025619;28;20224;-81
2023/01/28 07:41:47;;;;;;;11.23;6.05;;;1.40;96.30;;;;;;5023396;28;20228;-82
2023/01/28 07:44:14;;;;;;;10.32;6.00;;;1.40;1.00;;;;;;5022348;28;20208;-81
2023/01/28 07:46:40;;;;;;;6.47;5.75;;;1.40;8.90;;;;;;5021570;28;20726;-82
2023/01/28 07:49:07;;;;;;;6.22;4.57;;;1.50;99.90;;;;;;5018509;28;20247;-81
2023/01/28 07:51:34;;;;;;;8.60;5.25;;;1.60;1.00;;;;;;5020262;28;20231;-82
2023/01/28 07:54:01;;;;;;;7.80;5.15;;;1.60;47.10;;;;;;5028019;28;20243;-81
2023/01/28 07:56:30;;;;;;;5.60;4.32;;;1.70;58.90;;;;;;5019191;28;20204;-81
2023/01/28 07:58:58;;;;;;;6.97;5.30;;;1.70;46.70;;;;;;5020474;28;20239;-81
2023/01/28 08:01:25;;;;;;;9.77;4.80;;;1.70;29.60;;;;;;5031278;28;20211;-81
2023/01/28 08:03:51;;;;;;;7.15;4.25;;;1.70;1.00;;;;;;5024507;28;20211;-82
2023/01/28 08:06:18;;;;;;;8.63;5.32;;;1.60;1.00;;;;;;5021414;28;20550;-81
2023/01/28 08:08:46;;;;;;;10.13;5.60;;;1.60;1.00;;;;;;5020507;28;20224;-81
2023/01/28 08:11:13;;;;;;;6.38;4.75;;;1.60;1.00;;;;;;5020753;28;20291;-81
2023/01/28 08:13:40;;;;;;;8.90;5.45;;;1.60;1.00;;;;;;5021748;28;20263;-81
2023/01/28 08:16:08;;;;;;;7.93;6.25;;;1.60;1.00;;;;;;5020954;28;20586;-81
2023/01/28 08:18:35;;;;;;;6.95;5.50;;;1.60;1.00;;;;;;5020032;28;20236;-81
2023/01/28 08:21:03;;;;;;;6.90;5.63;;;1.60;1.70;;;;;;5020368;28;20201;-82
2023/01/28 08:23:33;;;;;;;8.07;5.78;;;1.70;99.90;;;;;;5019580;28;20271;-82
2023/01/28 08:26:00;;;;;;;6.57;5.43;;;1.90;99.90;;;;;;5020006;28;20205;-82
2023/01/28 08:28:27;;;;;;;6.97;5.43;;;1.90;53.10;;;;;;5019952;28;20224;-81
2023/01/28 08:30:54;;;;;;;8.20;6.72;;;1.90;82.30;;;;;;5019457;28;20319;-82
2023/01/28 08:33:22;;;;;;;9.63;6.53;;;2.00;99.90;;;;;;5023926;28;20232;-82
2023/01/28 08:35:49;;;;;;;7.60;5.88;;;1.80;1.00;;;;;;5039867;28;20213;-80
2023/01/28 08:38:16;;;;;;;10.18;6.50;;;1.70;1.00;;;;;;5040146;28;20279;-80
2023/01/28 08:40:43;;;;;;;8.52;5.95;;;1.70;1.00;;;;;;5032983;28;20567;-81
2023/01/28 08:43:10;;;;;;;9.07;6.50;;;1.90;1.00;;;;;;5017798;28;20208;-82
2023/01/28 08:45:38;;;;;;;6.03;5.15;;;2.00;1.00;;;;;;5018224;28;20295;-82
2023/01/28 08:48:08;;;;;;;9.02;6.03;;;1.90;1.00;;;;;;5017800;28;20224;-82
2023/01/28 08:50:38;;;;;;;11.45;7.32;;;1.80;1.00;;;;;;5017921;28;20224;-82
2023/01/28 08:53:07;;;;;;;10.85;6.72;;;2.00;1.00;;;;;;5022143;28;20197;-82
2023/01/28 08:55:35;;;;;;;12.05;7.85;;;2.00;1.00;;;;;;5026206;28;20276;-82
2023/01/28 08:58:03;;;;;;;9.68;6.72;;;1.90;82.20;;;;;;5023558;28;20205;-82
2023/01/28 09:00:30;;;;;;;12.57;7.63;;;1.90;1.00;;;;;;5021856;28;20264;-82
2023/01/28 09:02:57;;;;;;;12.68;7.13;;;1.80;1.00;;;;;;5020203;28;20226;-82
2023/01/28 09:05:23;;;;;;;9.55;6.85;;;2.00;1.00;;;;;;5021261;28;20202;-81
2023/01/28 09:07:51;;;;;;;6.95;5.88;;;2.10;1.00;;;;;;5020844;28;20210;-81
2023/01/28 09:10:19;;;;;;;5.45;4.65;;;2.20;1.00;;;;;;5020801;28;20227;-81
2023/01/28 09:12:46;;;;;;;4.72;4.32;;;2.20;1.00;;;;;;5020254;28;20211;-82
2023/01/28 09:15:13;;;;;;;5.13;4.43;;;2.10;1.00;;;;;;5021077;28;20292;-81
2023/01/28 09:17:40;;;;;;;6.75;4.22;;;2.10;1.00;;;;;;5020086;28;20208;-81
2023/01/28 09:20:08;;;;;;;8.05;4.75;;;2.10;1.00;;;;;;5021841;28;20240;-82
2023/01/28 09:22:35;;;;;;;4.55;4.20;;;2.20;1.00;;;;;;5028847;28;20574;-82
2023/01/28 09:25:04;;;;;;;4.32;3.90;;;2.10;1.00;;;;;;5023806;28;20583;-81
2023/01/28 09:27:31;;;;;;;6.25;3.67;;;2.30;1.00;;;;;;5020396;28;20205;-81
2023/01/28 09:29:57;;;;;;;4.22;3.25;;;2.30;1.00;;;;;;5017703;28;20303;-81
2023/01/28 09:32:24;;;;;;;3.92;3.55;;;2.30;1.00;;;;;;5020808;28;20224;-82
2023/01/28 09:34:51;;;;;;;4.93;3.53;;;2.30;1.00;;;;;;5020471;28;20200;-82
2023/01/28 09:37:18;;;;;;;2.90;2.70;;;2.20;1.00;;;;;;5020500;28;20208;-81
2023/01/28 09:39:45;;;;;;;2.72;2.47;;;2.20;1.00;;;;;;5027805;28;20300;-81
2023/01/28 09:42:38;;;;;;;3.17;2.90;;;2.30;1.00;;;;;;5030737;28;20399;-81
2023/01/28 09:45:12;;;;;;;3.67;3.47;;;2.30;1.00;;;;;;5029583;28;20252;-82
2023/01/28 09:47:43;;;;;;;3.75;2.50;;;2.30;1.00;;;;;;5029014;28;20191;-82
2023/01/28 09:50:15;;;;;;;3.72;3.28;;;2.20;1.00;;;;;;5030227;28;20236;-82
2023/01/28 09:52:42;;;;;;;2.55;2.35;;;2.30;1.00;;;;;;5029974;28;20247;-82
2023/01/28 09:55:19;;;;;;;4.20;2.60;;;2.30;1.00;;;;;;5029555;28;20205;-82
2023/01/28 09:57:52;;;;;;;3.15;2.95;;;2.60;99.90;;;;;;5030191;28;20199;-81
2023/01/28 10:00:22;;;;;;;4.45;3.53;;;2.40;1.00;;;;;;5026784;28;20185;-81
2023/01/28 10:03:35;;;;;;;3.63;2.00;;;2.50;1.00;;;;;;5029566;28;20196;-81
2023/01/28 10:06:13;;;;;;;2.10;2.00;;;2.40;1.00;;;;;;4998287;28;20296;-81
2023/01/28 10:09:11;;;;;;;2.42;2.20;;;2.30;1.00;;;;;;5028064;28;20324;-85
2023/01/28 10:11:50;;;;;;;2.30;2.10;;;2.20;1.00;;;;;;5020836;28;20205;-83
2023/01/28 10:14:28;;;;;;;2.50;2.40;;;2.00;1.00;;;;;;5021796;28;20220;-83
2023/01/28 10:17:03;;;;;;;5.20;2.38;;;2.20;1.00;;;;;;5025131;28;20212;-84
2023/01/28 10:19:34;;;;;;;2.08;1.95;;;2.30;1.00;;;;;;5022787;28;20239;-83
2023/01/28 10:22:05;;;;;;;1.73;1.60;;;2.20;1.00;;;;;;5026435;28;20257;-82
2023/01/28 10:24:35;;;;;;;1.58;1.48;;;2.20;1.00;;;;;;5031482;28;20200;-83
2023/01/28 10:27:03;;;;;;;2.03;1.92;;;2.20;1.00;;;;;;5030267;28;20264;-83
2023/01/28 10:29:35;;;;;;;1.95;1.85;;;2.00;1.00;;;;;;5022539;28;20225;-84
2023/01/28 10:32:12;;;;;;;2.13;1.85;;;2.00;1.00;;;;;;5020900;28;20220;-83
2023/01/28 10:34:39;;;;;;;1.30;1.20;;;2.20;1.00;;;;;;5020273;28;20193;-83
2023/01/28 10:37:06;;;;;;;3.85;2.05;;;2.30;1.00;;;;;;5021416;28;20264;-83
2023/01/28 10:39:34;;;;;;;1.77;1.63;;;2.20;1.00;;;;;;5020309;28;20230;-81
2023/01/28 10:42:00;;;;;;;1.50;1.40;;;2.10;1.00;;;;;;5018951;28;20196;-82
2023/01/28 10:44:34;;;;;;;1.42;1.33;;;2.00;1.00;;;;;;5017425;28;20204;-82
2023/01/28 10:47:06;;;;;;;1.40;1.30;;;2.00;1.00;;;;;;5018336;28;20276;-81
2023/01/28 10:49:45;;;;;;;1.55;1.45;;;2.00;1.00;;;;;;5017841;28;20726;-81
2023/01/28 10:52:14;;;;;;;2.35;1.75;;;2.20;1.00;;;;;;5018421;28;20271;-81
2023/01/28 10:54:40;;;;;;;1.73;1.63;;;2.40;1.00;;;;;;5018095;28;20252;-81
2023/01/28 10:57:12;;;;;;;1.98;1.80;;;2.50;1.00;;;;;;5019105;28;20343;-81
2023/01/28 10:59:41;;;;;;;2.00;1.90;;;2.40;1.00;;;;;;5018892;28;20228;-80
2023/01/28 11:02:31;;;;;;;3.15;1.42;;;2.30;1.00;;;;;;5019789;28;20557;-81
2023/01/28 11:05:06;;;;;;;7.20;1.77;;;2.40;1.00;;;;;;5019450;28;20215;-81
2023/01/28 11:07:33;;;;;;;2.80;1.60;;;2.40;1.00;;;;;;5018655;28;20199;-81
2023/01/28 11:10:00;;;;;;;1.70;1.60;;;2.40;1.00;;;;;;5024233;28;20275;-81
2023/01/28 11:12:29;;;;;;;3.92;1.60;;;2.40;1.00;;;;;;5032879;28;20293;-79
2023/01/28 11:14:58;;;;;;;1.90;1.80;;;2.40;1.00;;;;;;5028577;28;20226;-79
2023/01/28 11:17:28;;;;;;;2.28;1.92;;;2.40;1.00;;;;;;5026731;28;20212;-78
2023/01/28 11:19:58;;;;;;;1.50;1.40;;;2.10;50.10;;;;;;5017843;28;20259;-80
2023/01/28 11:22:32;;;;;;;1.85;1.73;;;2.30;1.00;;;;;;5016511;28;20189;-79
2023/01/28 11:25:00;;;;;;;1.48;1.38;;;2.30;1.00;;;;;;5015733;28;20191;-80
2023/01/28 11:27:29;;;;;;;1.73;1.42;;;2.40;1.00;;;;;;5019128;28;20204;-79
2023/01/28 11:30:02;;;;;;;3.60;1.60;;;2.60;1.00;;;;;;5020353;28;20635;-79
2023/01/28 11:32:30;;;;;;;2.97;1.58;;;2.40;1.00;;;;;;5018299;28;20219;-80
2023/01/28 11:34:58;;;;;;;3.80;1.83;;;2.50;1.00;;;;;;5018446;28;20208;-79
2023/01/28 11:37:27;;;;;;;7.88;1.55;;;2.50;1.00;;;;;;5018548;28;20209;-79
2023/01/28 11:40:11;;;;;;;1.88;1.67;;;2.40;1.00;;;;;;5019502;28;20224;-80
2023/01/28 11:42:37;;;;;;;1.52;1.42;;;2.30;1.00;;;;;;5023998;28;20570;-79
2023/01/28 11:45:15;;;;;;;3.58;1.48;;;2.40;1.00;;;;;;5020030;28;20235;-80
2023/01/28 11:47:59;;;;;;;2.17;1.95;;;2.30;1.00;;;;;;5019422;28;20194;-79
2023/01/28 11:50:37;;;;;;;4.95;2.33;;;2.10;43.80;;;;;;5019913;28;20201;-79
2023/01/28 11:53:23;;;;;;;5.93;1.90;;;2.10;1.00;;;;;;5023079;28;20208;-79
2023/01/28 11:56:01;;;;;;;2.30;2.00;;;2.10;1.00;;;;;;5032526;28;20184;-80
2023/01/28 11:58:42;;;;;;;3.20;1.55;;;2.30;1.00;;;;;;5030203;28;20311;-79
2023/01/28 12:01:14;;;;;;;3.70;1.67;;;2.30;1.00;;;;;;5027476;28;20192;-79
2023/01/28 12:04:01;;;;;;;1.65;1.55;;;2.30;1.00;;;;;;5025583;28;20257;-80
2023/01/28 12:06:42;;;;;;;1.80;1.70;;;2.30;1.00;;;;;;5022341;28;20219;-80
2023/01/28 12:09:18;;;;;;;2.75;2.25;;;2.50;1.00;;;;;;5021736;28;20651;-80
2023/01/28 12:12:12;;;;;;;2.40;2.05;;;2.50;1.00;;;;;;5020873;28;20696;-80
2023/01/28 12:15:04;;;;;;;5.22;2.10;;;2.60;1.00;;;;;;5020437;28;20185;-81
2023/01/28 12:17:45;;;;;;;2.63;2.42;;;2.50;1.00;;;;;;5017455;28;20648;-80
2023/01/28 12:20:18;;;;;;;4.10;2.20;;;2.40;1.00;;;;;;5019624;28;20196;-80
2023/01/28 12:23:03;;;;;;;2.92;2.72;;;2.40;59.90;;;;;;5019697;28;20192;-79
2023/01/28 12:25:47;;;;;;;3.45;2.40;;;2.50;44.80;;;;;;5019056;28;20207;-80
2023/01/28 12:28:29;;;;;;;2.60;2.40;;;2.60;41.00;;;;;;5020527;28;20227;-79
2023/01/28 12:31:13;;;;;;;2.88;2.00;;;2.30;19.50;;;;;;5024504;28;20251;-80
2023/01/28 12:34:07;;;;;;;2.63;2.42;;;2.30;99.90;;;;;;5018589;28;20184;-79
2023/01/28 12:36:47;;;;;;;1.73;1.63;;;2.50;99.90;;;;;;5019342;28;20639;-79
2023/01/28 12:39:26;;;;;;;2.15;2.05;;;2.30;99.90;;;;;;5017122;28;20228;-79
2023/01/28 12:42:03;;;;;;;2.05;1.88;;;2.50;99.90;;;;;;5020112;28;20184;-80
2023/01/28 12:44:35;;;;;;;2.65;1.90;;;2.60;99.90;;;;;;5020255;28;20193;-80
2023/01/28 12:47:08;;;;;;;3.40;2.30;;;2.60;99.90;;;;;;5020342;28;20181;-79
2023/01/28 12:49:43;;;;;;;4.63;2.42;;;2.50;99.90;;;;;;5029967;28;20225;-79
2023/01/28 12:52:15;;;;;;;2.15;2.00;;;2.60;99.90;;;;;;5024324;28;20212;-78
2023/01/28 12:54:50;;;;;;;5.47;2.03;;;2.50;99.90;;;;;;5029211;28;20193;-79
2023/01/28 12:57:24;;;;;;;2.10;1.90;;;2.70;99.90;;;;;;5029604;28;20196;-79
2023/01/28 12:59:57;;;;;;;1.75;1.65;;;2.30;99.90;;;;;;5026589;28;20224;-80
2023/01/28 13:02:27;;;;;;;5.30;2.30;;;2.20;99.90;;;;;;5021895;28;20184;-79
2023/01/28 13:05:04;;;;;;;2.30;2.13;;;2.30;99.90;;;;;;5023857;28;20195;-80
2023/01/28 13:07:38;;;;;;;2.42;2.22;;;2.50;99.90;;;;;;5022909;28;20556;-78
2023/01/28 13:10:31;;;;;;;7.10;2.42;;;2.60;99.90;;;;;;5021320;28;20786;-82
2023/01/28 13:12:58;;;;;;;2.13;2.00;;;2.60;99.90;;;;;;5020631;28;20209;-79
2023/01/28 13:15:26;;;;;;;2.58;2.38;;;2.40;99.90;;;;;;5022221;28;20211;-81
2023/01/28 13:17:58;;;;;;;10.20;3.35;;;2.10;1.00;;;;;;5024952;28;20207;-80
2023/01/28 13:20:38;;;;;;;41.30;7.38;;;2.30;99.90;;;;;;5033102;28;20272;-82
2023/01/28 13:23:06;;;;;;;15.98;3.33;;;2.30;99.90;;;;;;5029304;28;20611;-83
2023/01/28 13:25:34;;;;;;;8.70;2.20;;;2.50;99.90;;;;;;5026285;28;20299;-82
2023/01/28 13:28:03;;;;;;;7.18;2.05;;;2.30;99.90;;;;;;5025007;28;20209;-80
2023/01/28 13:30:31;;;;;;;2.55;1.70;;;2.50;50.90;;;;;;5024590;28;20211;-81
2023/01/28 13:33:00;;;;;;;2.45;2.05;;;2.60;99.90;;;;;;5026010;28;20250;-81
2023/01/28 13:35:35;;;;;;;1.52;1.23;;;2.70;34.70;;;;;;5025668;28;20215;-83
2023/01/28 13:38:13;;;;;;;3.03;1.30;;;2.40;99.90;;;;;;5025342;28;20620;-82
2023/01/28 13:40:41;;;;;;;1.55;1.45;;;2.40;1.00;;;;;;5019938;28;20188;-82
2023/01/28 13:43:26;;;;;;;3.13;1.40;;;2.30;1.00;;;;;;5024082;28;20200;-84
2023/01/28 13:45:58;;;;;;;1.15;1.05;;;2.40;1.00;;;;;;5027014;28;20236;-86
2023/01/28 13:48:32;;;;;;;2.35;1.45;;;2.30;1.00;;;;;;5029351;28;20224;-82
2023/01/28 13:51:01;;;;;;;3.70;2.40;;;2.60;99.90;;;;;;5030036;28;20189;-81
2023/01/28 13:53:40;;;;;;;3.35;1.85;;;2.50;90.00;;;;;;5028965;28;20717;-84
2023/01/28 13:56:17;;;;;;;1.80;1.70;;;2.70;34.80;;;;;;5030663;28;20195;-86